Time;durP1;ratioP1;P1;durP2;ratioP2;P2;SDS_P1;SDS_P2;PMS_P1;PMS_P2;Temp;Humidity;BMP_temperature;BMP_pressure;BME280_temperature;BME280_humidity;BME280_pressure;Samples;Min_cycle;Max_cycle;Signal;HPM_P1;HPM_P2
2021/11/13 00:00:05;;;;;;;273.00;58.57;;;7.60;99.90;;;;;;6196368;23;20748;-77
2021/11/13 00:02:43;;;;;;;170.37;48.00;;;7.60;99.90;;;;;;6186393;23;20418;-76
2021/11/13 00:05:13;;;;;;;162.23;46.63;;;7.60;99.90;;;;;;6184737;23;20458;-77
2021/11/13 00:07:42;;;;;;;152.40;36.93;;;7.60;99.90;;;;;;6184766;23;20408;-77
2021/11/13 00:10:13;;;;;;;219.93;48.07;;;7.70;99.90;;;;;;6196832;23;20511;-77
2021/11/13 00:12:41;;;;;;;254.33;49.53;;;7.60;99.90;;;;;;6184702;23;20472;-77
2021/11/13 00:15:11;;;;;;;269.60;62.50;;;7.70;99.90;;;;;;6184996;23;20415;-76
2021/11/13 00:17:39;;;;;;;257.53;57.83;;;7.70;99.90;;;;;;6184976;23;20496;-77
2021/11/13 00:20:09;;;;;;;253.47;48.50;;;7.70;99.90;;;;;;6184698;23;20512;-77
2021/11/13 00:22:41;;;;;;;264.07;57.83;;;7.70;99.90;;;;;;6185110;23;20441;-77
2021/11/13 00:25:10;;;;;;;408.07;84.80;;;7.80;99.90;;;;;;6184604;23;20437;-77
2021/11/13 00:27:39;;;;;;;234.90;55.33;;;7.80;99.90;;;;;;6184762;23;20422;-76
2021/11/13 00:30:09;;;;;;;180.33;37.07;;;7.80;99.90;;;;;;6184868;23;20811;-78
2021/11/13 00:32:38;;;;;;;173.00;43.63;;;7.80;99.90;;;;;;6187359;23;20824;-79
2021/11/13 00:35:07;;;;;;;178.50;42.47;;;7.80;99.90;;;;;;6187111;23;20508;-79
2021/11/13 00:37:35;;;;;;;239.50;57.23;;;7.80;99.90;;;;;;6187034;23;20423;-79
2021/11/13 00:40:07;;;;;;;184.23;44.90;;;7.90;99.90;;;;;;6187042;23;20429;-79
2021/11/13 00:42:36;;;;;;;243.67;50.23;;;7.90;99.90;;;;;;6198393;23;20427;-79
2021/11/13 00:45:05;;;;;;;324.10;61.83;;;7.90;99.90;;;;;;6186244;23;20502;-79
2021/11/13 00:47:33;;;;;;;261.30;53.57;;;7.90;99.90;;;;;;6186867;23;20506;-79
2021/11/13 00:50:01;;;;;;;228.13;50.13;;;8.00;99.90;;;;;;6188686;23;20414;-79
2021/11/13 00:52:30;;;;;;;151.97;38.60;;;8.00;99.90;;;;;;6186205;23;20771;-78
2021/11/13 00:54:58;;;;;;;263.10;55.23;;;8.00;99.90;;;;;;6188191;23;20409;-79
2021/11/13 00:57:29;;;;;;;293.27;62.73;;;8.00;99.90;;;;;;6198715;23;20453;-79
2021/11/13 00:59:57;;;;;;;202.83;45.93;;;8.00;99.90;;;;;;6186731;23;20436;-79
2021/11/13 01:02:25;;;;;;;233.20;65.47;;;8.00;99.90;;;;;;6187131;23;20497;-79
2021/11/13 01:04:53;;;;;;;264.17;60.93;;;8.00;99.90;;;;;;6188128;23;20730;-78
2021/11/13 01:07:22;;;;;;;202.83;37.47;;;8.00;99.90;;;;;;6186789;23;20436;-79
2021/11/13 01:09:50;;;;;;;288.63;57.23;;;8.10;99.90;;;;;;6186801;23;20503;-79
2021/11/13 01:12:18;;;;;;;187.90;45.03;;;8.00;99.90;;;;;;6186964;23;20446;-79
2021/11/13 01:14:48;;;;;;;194.93;46.30;;;8.10;99.90;;;;;;6186391;23;20428;-79
2021/11/13 01:17:18;;;;;;;248.43;50.00;;;8.10;99.90;;;;;;6187280;23;20422;-78
2021/11/13 01:19:48;;;;;;;236.87;47.20;;;8.10;99.90;;;;;;6188648;23;20418;-79
2021/11/13 01:22:18;;;;;;;268.83;60.13;;;8.10;99.90;;;;;;6186217;23;20511;-78
2021/11/13 01:24:47;;;;;;;225.30;53.67;;;8.10;99.90;;;;;;6186402;23;20420;-79
2021/11/13 01:27:16;;;;;;;198.93;45.23;;;8.10;99.90;;;;;;6186949;23;20490;-79
2021/11/13 01:29:44;;;;;;;235.80;48.90;;;8.10;99.90;;;;;;6186166;23;20423;-79
2021/11/13 01:32:15;;;;;;;273.17;49.10;;;8.20;99.90;;;;;;6186194;23;20431;-78
2021/11/13 01:34:43;;;;;;;287.27;55.57;;;8.10;99.90;;;;;;6186227;23;20473;-79
2021/11/13 01:37:12;;;;;;;68.77;24.00;;;8.20;99.90;;;;;;6187030;23;20482;-79
2021/11/13 01:39:40;;;;;;;204.03;45.37;;;8.20;99.90;;;;;;6197883;23;20461;-79
2021/11/13 01:42:09;;;;;;;175.97;50.83;;;8.20;99.90;;;;;;6186444;23;20495;-79
2021/11/13 01:44:40;;;;;;;217.53;47.00;;;8.20;99.90;;;;;;6197588;23;20383;-78
2021/11/13 01:47:09;;;;;;;182.53;42.70;;;8.20;99.90;;;;;;6186253;23;20582;-79
2021/11/13 01:49:39;;;;;;;154.00;33.90;;;8.20;99.90;;;;;;6189653;23;20411;-79
2021/11/13 01:52:11;;;;;;;259.50;52.97;;;8.20;99.90;;;;;;6188225;23;20443;-79
2021/11/13 01:54:41;;;;;;;302.37;50.80;;;8.20;99.90;;;;;;6199620;23;20878;-78
2021/11/13 01:57:12;;;;;;;177.63;45.70;;;8.20;99.90;;;;;;6189986;23;20415;-79
2021/11/13 01:59:42;;;;;;;268.10;64.77;;;8.20;99.90;;;;;;6199495;23;20409;-79
2021/11/13 02:02:10;;;;;;;254.43;44.97;;;8.20;99.90;;;;;;6199121;23;20477;-79
2021/11/13 02:04:40;;;;;;;177.23;32.47;;;8.20;99.90;;;;;;6188008;23;20449;-78
2021/11/13 02:07:09;;;;;;;256.20;51.37;;;8.20;99.90;;;;;;6188461;23;20468;-79
2021/11/13 02:09:37;;;;;;;209.47;46.63;;;8.30;99.90;;;;;;6190533;23;20422;-79
2021/11/13 02:12:06;;;;;;;223.67;42.73;;;8.30;99.90;;;;;;6192561;23;20442;-79
2021/11/13 02:14:35;;;;;;;280.70;55.70;;;8.30;99.90;;;;;;6190443;23;20415;-79
2021/11/13 02:17:04;;;;;;;272.27;55.03;;;8.30;99.90;;;;;;6187516;23;20405;-78
2021/11/13 02:19:32;;;;;;;211.20;49.67;;;8.20;99.90;;;;;;6186311;23;20415;-79
2021/11/13 02:22:04;;;;;;;267.37;56.63;;;8.30;99.90;;;;;;6187812;23;20488;-78
2021/11/13 02:24:32;;;;;;;121.43;37.43;;;8.20;99.90;;;;;;6185787;23;20449;-78
2021/11/13 02:27:01;;;;;;;233.50;50.27;;;8.20;99.90;;;;;;6197632;23;20999;-79
2021/11/13 02:29:29;;;;;;;252.07;52.73;;;8.20;99.90;;;;;;6197768;23;20432;-79
2021/11/13 02:31:58;;;;;;;197.13;54.60;;;8.20;99.90;;;;;;6185746;23;20760;-78
2021/11/13 02:34:27;;;;;;;177.97;47.07;;;8.20;99.90;;;;;;6185993;23;20909;-79
2021/11/13 02:36:55;;;;;;;174.90;40.73;;;8.20;99.90;;;;;;6197961;23;20493;-78
2021/11/13 02:39:25;;;;;;;238.00;57.17;;;8.20;99.90;;;;;;6186218;23;20477;-78
2021/11/13 02:41:54;;;;;;;190.67;47.40;;;8.20;99.90;;;;;;6186049;23;20496;-78
2021/11/13 02:44:22;;;;;;;333.60;66.90;;;8.20;99.90;;;;;;6185892;23;20456;-78
2021/11/13 02:46:52;;;;;;;238.40;54.67;;;8.20;99.90;;;;;;6186002;23;20488;-79
2021/11/13 02:49:21;;;;;;;202.00;47.53;;;8.20;99.90;;;;;;6186127;23;20494;-79
2021/11/13 02:51:49;;;;;;;190.33;41.17;;;8.20;99.90;;;;;;6186090;23;20828;-78
2021/11/13 02:54:17;;;;;;;192.00;44.60;;;8.20;99.90;;;;;;6187406;23;20493;-78
2021/11/13 02:56:48;;;;;;;280.00;52.30;;;8.20;99.90;;;;;;6185816;23;20481;-78
2021/11/13 02:59:16;;;;;;;193.97;45.07;;;8.10;99.90;;;;;;6186124;23;20936;-79
2021/11/13 03:01:44;;;;;;;193.23;46.90;;;8.20;99.90;;;;;;6185833;23;21016;-78
2021/11/13 03:04:13;;;;;;;176.97;38.20;;;8.20;99.90;;;;;;6186404;23;20416;-78
2021/11/13 03:06:42;;;;;;;195.87;49.23;;;8.20;99.90;;;;;;6185776;23;20484;-78
2021/11/13 03:09:10;;;;;;;223.23;49.93;;;8.20;99.90;;;;;;6185668;23;20434;-79
2021/11/13 03:11:38;;;;;;;273.53;49.63;;;8.10;99.90;;;;;;6186374;23;20493;-78
2021/11/13 03:14:08;;;;;;;256.90;49.90;;;8.20;99.90;;;;;;6187755;23;20411;-78
2021/11/13 03:16:38;;;;;;;148.27;40.53;;;8.10;99.90;;;;;;6186634;23;20410;-78
2021/11/13 03:19:07;;;;;;;233.33;48.60;;;8.10;99.90;;;;;;6186396;23;20427;-79
2021/11/13 03:21:35;;;;;;;162.27;44.47;;;8.10;99.90;;;;;;6186544;23;20773;-79
2021/11/13 03:24:04;;;;;;;240.47;54.37;;;8.10;99.90;;;;;;6198388;23;20427;-78
2021/11/13 03:26:34;;;;;;;243.93;47.73;;;8.10;99.90;;;;;;6198003;23;20429;-79
2021/11/13 03:29:09;;;;;;;241.67;45.47;;;8.10;99.90;;;;;;6187163;23;20429;-79
2021/11/13 03:31:38;;;;;;;188.30;51.43;;;8.10;99.90;;;;;;6186221;23;20485;-78
2021/11/13 03:34:06;;;;;;;140.30;45.37;;;8.10;99.90;;;;;;6186661;23;20415;-78
2021/11/13 03:36:35;;;;;;;166.17;51.43;;;8.10;99.90;;;;;;6186413;23;20951;-79
2021/11/13 03:39:05;;;;;;;121.87;44.63;;;8.10;99.90;;;;;;6186870;23;20931;-79
2021/11/13 03:41:34;;;;;;;227.97;55.33;;;8.10;99.90;;;;;;6185971;23;20468;-78
2021/11/13 03:44:02;;;;;;;218.47;51.97;;;8.20;99.90;;;;;;6185813;23;20501;-78
2021/11/13 03:46:30;;;;;;;243.30;52.20;;;8.10;99.90;;;;;;6185528;23;20441;-78
2021/11/13 03:49:00;;;;;;;245.10;62.97;;;8.10;99.90;;;;;;6185656;23;21013;-78
2021/11/13 03:51:28;;;;;;;322.57;66.63;;;8.10;99.90;;;;;;6185984;23;20447;-78
2021/11/13 03:53:57;;;;;;;265.13;57.53;;;8.10;99.90;;;;;;6185753;23;20862;-79
2021/11/13 03:56:25;;;;;;;209.73;50.97;;;8.10;99.90;;;;;;6185528;23;20438;-78
2021/11/13 03:58:53;;;;;;;194.47;45.53;;;8.10;99.90;;;;;;6185079;23;20458;-78
2021/11/13 04:01:21;;;;;;;210.33;46.63;;;8.10;99.90;;;;;;6185498;23;20441;-78
2021/11/13 04:03:50;;;;;;;229.07;56.27;;;8.10;99.90;;;;;;6185389;23;20424;-78
2021/11/13 04:06:20;;;;;;;149.97;41.37;;;8.10;99.90;;;;;;6185601;23;20471;-76
2021/11/13 04:08:48;;;;;;;173.20;43.80;;;8.10;99.90;;;;;;6186925;23;20493;-79
2021/11/13 04:11:17;;;;;;;171.37;43.43;;;8.20;99.90;;;;;;6186410;23;20443;-79
2021/11/13 04:13:45;;;;;;;145.93;42.30;;;8.20;99.90;;;;;;6197626;23;20458;-78
2021/11/13 04:16:13;;;;;;;139.63;39.37;;;8.10;99.90;;;;;;6197537;23;20422;-79
2021/11/13 04:18:42;;;;;;;209.97;50.07;;;8.10;99.90;;;;;;6185716;23;20515;-79
2021/11/13 04:21:10;;;;;;;166.33;42.97;;;8.20;99.90;;;;;;6185996;23;20445;-78
2021/11/13 04:23:40;;;;;;;198.57;49.27;;;8.20;99.90;;;;;;6185487;23;20471;-78
2021/11/13 04:26:08;;;;;;;191.57;50.03;;;8.20;99.90;;;;;;6185170;23;20481;-79
2021/11/13 04:28:37;;;;;;;232.80;52.30;;;8.20;99.90;;;;;;6185849;23;20932;-79
2021/11/13 04:31:05;;;;;;;180.70;44.53;;;8.20;99.90;;;;;;6186605;23;20919;-78
2021/11/13 04:33:34;;;;;;;194.43;54.53;;;8.20;99.90;;;;;;6185465;23;20752;-78
2021/11/13 04:36:08;;;;;;;96.70;38.50;;;8.20;99.90;;;;;;6185793;23;20449;-79
2021/11/13 04:38:36;;;;;;;194.73;51.63;;;8.20;99.90;;;;;;6185760;23;20444;-79
2021/11/13 04:41:07;;;;;;;205.60;49.13;;;8.20;99.90;;;;;;6187718;23;20418;-78
2021/11/13 04:43:35;;;;;;;136.13;48.27;;;8.20;99.90;;;;;;6186039;23;20414;-78
2021/11/13 04:46:04;;;;;;;117.07;39.70;;;8.20;99.90;;;;;;6187579;23;20400;-79
2021/11/13 04:48:32;;;;;;;127.17;48.83;;;8.20;99.90;;;;;;6197882;23;20430;-79
2021/11/13 04:51:03;;;;;;;195.40;50.50;;;8.20;99.90;;;;;;6197528;23;20431;-78
2021/11/13 04:53:32;;;;;;;147.40;46.90;;;8.20;99.90;;;;;;6187971;23;20434;-79
2021/11/13 04:56:01;;;;;;;259.03;56.43;;;8.20;99.90;;;;;;6187052;23;20411;-78
2021/11/13 04:58:31;;;;;;;110.67;42.00;;;8.30;99.90;;;;;;6185998;23;20413;-78
2021/11/13 05:00:59;;;;;;;176.80;43.57;;;8.20;99.90;;;;;;6187363;23;20390;-78
2021/11/13 05:03:28;;;;;;;249.77;60.77;;;8.20;99.90;;;;;;6185186;23;20427;-79
2021/11/13 05:05:57;;;;;;;139.10;40.90;;;8.20;99.90;;;;;;6185295;23;20429;-79
2021/11/13 05:08:27;;;;;;;195.63;58.57;;;8.20;99.90;;;;;;6186604;23;20483;-78
2021/11/13 05:10:55;;;;;;;162.37;43.20;;;8.20;99.90;;;;;;6185505;23;20410;-79
2021/11/13 05:13:23;;;;;;;150.23;37.17;;;8.20;99.90;;;;;;6185521;23;20502;-78
2021/11/13 05:15:53;;;;;;;124.70;38.87;;;8.20;99.90;;;;;;6185622;23;20473;-79
2021/11/13 05:18:22;;;;;;;200.07;49.40;;;8.20;99.90;;;;;;6185690;23;20419;-79
2021/11/13 05:20:51;;;;;;;209.17;49.40;;;8.20;99.90;;;;;;6184797;23;20422;-78
2021/11/13 05:23:19;;;;;;;170.87;46.93;;;8.20;99.90;;;;;;6187171;23;20407;-78
2021/11/13 05:25:47;;;;;;;153.20;44.80;;;8.20;99.90;;;;;;6187298;23;20407;-79
2021/11/13 05:28:15;;;;;;;203.40;49.23;;;8.20;99.90;;;;;;6198541;23;20431;-78
2021/11/13 05:30:43;;;;;;;105.20;38.10;;;8.30;99.90;;;;;;6187121;23;20977;-78
2021/11/13 05:33:13;;;;;;;205.23;41.00;;;8.20;99.90;;;;;;6187365;23;20446;-79
2021/11/13 05:35:41;;;;;;;182.70;38.53;;;8.20;99.90;;;;;;6187653;23;20469;-78
2021/11/13 05:38:09;;;;;;;212.40;56.33;;;8.30;99.90;;;;;;6186971;23;20821;-78
2021/11/13 05:40:38;;;;;;;242.40;54.60;;;8.30;99.90;;;;;;6187291;23;20944;-79
2021/11/13 05:43:06;;;;;;;201.70;43.40;;;8.20;99.90;;;;;;6186989;23;20475;-79
2021/11/13 05:45:34;;;;;;;216.47;48.83;;;8.30;99.90;;;;;;6188466;23;20418;-79
2021/11/13 05:48:03;;;;;;;245.47;49.97;;;8.20;99.90;;;;;;6191871;23;20445;-79
2021/11/13 05:50:32;;;;;;;180.67;38.63;;;8.30;99.90;;;;;;6189945;23;20411;-79
2021/11/13 05:53:03;;;;;;;183.77;45.73;;;8.30;99.90;;;;;;6189744;23;20447;-79
2021/11/13 05:55:31;;;;;;;118.50;35.23;;;8.30;99.90;;;;;;6189992;23;20859;-79
2021/11/13 05:57:59;;;;;;;245.83;48.27;;;8.30;99.90;;;;;;6189397;23;20510;-79
2021/11/13 06:00:28;;;;;;;172.50;35.67;;;8.20;99.90;;;;;;6190854;23;20437;-79
2021/11/13 06:02:57;;;;;;;112.33;32.90;;;8.20;99.90;;;;;;6201278;23;20797;-79
2021/11/13 06:05:25;;;;;;;171.93;42.43;;;8.20;99.90;;;;;;6189023;23;20422;-79
2021/11/13 06:07:55;;;;;;;147.00;45.57;;;8.20;99.90;;;;;;6189686;23;20422;-79
2021/11/13 06:10:23;;;;;;;117.10;41.57;;;8.20;99.90;;;;;;6200961;23;20434;-79
2021/11/13 06:12:51;;;;;;;171.50;44.73;;;8.20;99.90;;;;;;6189339;23;20440;-79
2021/11/13 06:15:23;;;;;;;173.17;41.00;;;8.20;99.90;;;;;;6200694;23;20715;-79
2021/11/13 06:17:51;;;;;;;251.87;59.97;;;8.20;99.90;;;;;;6191278;23;20469;-79
2021/11/13 06:20:19;;;;;;;231.53;44.00;;;8.20;99.90;;;;;;6200785;23;20392;-79
2021/11/13 06:22:48;;;;;;;180.03;50.33;;;8.20;99.90;;;;;;6188210;23;20446;-79
2021/11/13 06:25:17;;;;;;;129.17;45.17;;;8.20;99.90;;;;;;6187847;23;20494;-79
2021/11/13 06:27:46;;;;;;;170.63;45.10;;;8.20;99.90;;;;;;6188682;23;20426;-78
2021/11/13 06:30:16;;;;;;;166.77;49.60;;;8.20;99.90;;;;;;6187590;23;20443;-79
2021/11/13 06:32:46;;;;;;;122.27;40.43;;;8.20;99.90;;;;;;6187509;23;20430;-79
2021/11/13 06:35:18;;;;;;;168.83;40.83;;;8.20;99.90;;;;;;6188315;23;20446;-79
2021/11/13 06:37:48;;;;;;;179.20;43.00;;;8.20;99.90;;;;;;6188364;23;20437;-79
2021/11/13 06:40:25;;;;;;;186.67;41.10;;;8.20;99.90;;;;;;6188436;23;20410;-79
2021/11/13 06:42:59;;;;;;;168.53;47.30;;;8.20;99.90;;;;;;6190090;23;20438;-79
2021/11/13 06:45:33;;;;;;;164.67;43.67;;;8.20;99.90;;;;;;6191736;23;20398;-79
2021/11/13 06:48:01;;;;;;;143.10;44.43;;;8.20;99.90;;;;;;6189521;23;20501;-79
2021/11/13 06:50:30;;;;;;;200.00;44.90;;;8.20;99.90;;;;;;6191320;23;20822;-79
2021/11/13 06:52:58;;;;;;;199.27;57.87;;;8.20;99.90;;;;;;6189515;23;20472;-79
2021/11/13 06:55:28;;;;;;;219.07;44.17;;;8.20;99.90;;;;;;6190197;23;20431;-79
2021/11/13 06:57:56;;;;;;;146.13;37.63;;;8.20;99.90;;;;;;6201070;23;20591;-79
2021/11/13 07:00:24;;;;;;;117.43;40.40;;;8.20;99.90;;;;;;6189033;23;20419;-79
2021/11/13 07:02:53;;;;;;;204.03;44.67;;;8.20;99.90;;;;;;6188939;23;20780;-79
2021/11/13 07:05:22;;;;;;;182.90;47.83;;;8.20;99.90;;;;;;6189353;23;20423;-79
2021/11/13 07:07:50;;;;;;;117.43;44.47;;;8.20;99.90;;;;;;6189374;23;20501;-79
2021/11/13 07:10:19;;;;;;;167.87;42.77;;;8.20;99.90;;;;;;6189524;23;20443;-79
2021/11/13 07:12:49;;;;;;;227.77;56.90;;;8.20;99.90;;;;;;6189532;23;20956;-79
2021/11/13 07:15:19;;;;;;;206.30;55.30;;;8.20;99.90;;;;;;6190108;23;20417;-79
2021/11/13 07:17:47;;;;;;;101.73;38.43;;;8.20;99.90;;;;;;6189278;23;20422;-79
2021/11/13 07:20:16;;;;;;;132.43;43.93;;;8.20;99.90;;;;;;6190012;23;20794;-79
2021/11/13 07:22:46;;;;;;;189.80;48.70;;;8.20;99.90;;;;;;6189739;23;20474;-79
2021/11/13 07:25:15;;;;;;;222.33;56.20;;;8.20;99.90;;;;;;6190421;23;20412;-79
2021/11/13 07:27:46;;;;;;;150.30;33.97;;;8.20;99.90;;;;;;6190506;23;20475;-79
2021/11/13 07:30:19;;;;;;;163.17;47.37;;;8.20;99.90;;;;;;6190104;23;20436;-79
2021/11/13 07:32:49;;;;;;;116.90;40.53;;;8.20;99.90;;;;;;6190127;23;20489;-79
2021/11/13 07:35:18;;;;;;;114.77;36.33;;;8.20;99.90;;;;;;6191343;23;20883;-79
2021/11/13 07:37:46;;;;;;;159.93;46.23;;;8.20;99.90;;;;;;6190791;23;20501;-79
2021/11/13 07:40:14;;;;;;;191.80;49.57;;;8.20;99.90;;;;;;6202738;23;20416;-79
2021/11/13 07:42:43;;;;;;;205.57;57.60;;;8.20;99.90;;;;;;6190123;23;20939;-79
2021/11/13 07:45:11;;;;;;;166.67;57.67;;;8.20;99.90;;;;;;6192381;23;20445;-79
2021/11/13 07:47:42;;;;;;;127.90;42.77;;;8.20;99.90;;;;;;6189838;23;20970;-79
2021/11/13 07:50:12;;;;;;;168.87;39.07;;;8.30;99.90;;;;;;6191630;23;20808;-79
2021/11/13 07:52:43;;;;;;;153.97;42.57;;;8.20;99.90;;;;;;6190201;23;20489;-79
2021/11/13 07:55:12;;;;;;;136.10;49.43;;;8.30;99.90;;;;;;6192098;23;20403;-79
2021/11/13 07:57:40;;;;;;;180.20;40.73;;;8.30;99.90;;;;;;6190419;23;20465;-79
2021/11/13 08:00:13;;;;;;;149.20;41.57;;;8.30;99.90;;;;;;6189940;23;20427;-79
2021/11/13 08:02:43;;;;;;;163.70;48.27;;;8.20;99.90;;;;;;6190134;23;20434;-79
2021/11/13 08:05:13;;;;;;;132.53;45.10;;;8.20;99.90;;;;;;6189741;23;20427;-79
2021/11/13 08:07:42;;;;;;;177.33;45.27;;;8.30;99.90;;;;;;6200314;23;20889;-78
2021/11/13 08:10:12;;;;;;;171.40;46.00;;;8.30;99.90;;;;;;6186258;23;20439;-78
2021/11/13 08:12:41;;;;;;;159.00;39.87;;;8.30;99.90;;;;;;6184092;23;20489;-77
2021/11/13 08:15:11;;;;;;;153.70;48.07;;;8.30;99.90;;;;;;6195900;23;20422;-77
2021/11/13 08:17:41;;;;;;;103.97;35.10;;;8.30;99.90;;;;;;6186064;23;20806;-77
2021/11/13 08:20:12;;;;;;;215.53;49.23;;;8.30;99.90;;;;;;6195886;23;20395;-77
2021/11/13 08:22:42;;;;;;;166.83;40.90;;;8.30;99.90;;;;;;6184390;23;20505;-78
2021/11/13 08:25:12;;;;;;;177.33;48.83;;;8.30;99.90;;;;;;6186221;23;20413;-78
2021/11/13 08:27:42;;;;;;;132.87;43.83;;;8.30;99.90;;;;;;6184227;23;20477;-78
2021/11/13 08:30:15;;;;;;;171.70;52.10;;;8.30;99.90;;;;;;6186070;23;20736;-78
2021/11/13 08:32:45;;;;;;;130.13;43.80;;;8.30;99.90;;;;;;6184346;23;20435;-78
2021/11/13 08:35:16;;;;;;;221.07;53.77;;;8.30;99.90;;;;;;6196044;23;20403;-78
2021/11/13 08:37:45;;;;;;;196.40;52.47;;;8.30;99.90;;;;;;6195730;23;20390;-78
2021/11/13 08:40:15;;;;;;;133.67;42.37;;;8.30;99.90;;;;;;6186083;23;20436;-78
2021/11/13 08:42:44;;;;;;;159.60;46.50;;;8.30;99.90;;;;;;6184219;23;20494;-77
2021/11/13 08:45:13;;;;;;;158.90;57.33;;;8.30;99.90;;;;;;6184250;23;20415;-78
2021/11/13 08:47:42;;;;;;;102.93;44.97;;;8.40;99.90;;;;;;6196147;23;20438;-77
2021/11/13 08:50:13;;;;;;;202.70;58.93;;;8.40;99.90;;;;;;6184344;23;20470;-78
2021/11/13 08:52:43;;;;;;;201.07;48.67;;;8.40;99.90;;;;;;6195889;23;20419;-78
2021/11/13 08:55:12;;;;;;;140.80;47.43;;;8.40;99.90;;;;;;6184886;23;20508;-78
2021/11/13 08:57:41;;;;;;;179.73;50.50;;;8.40;99.90;;;;;;6197484;23;20403;-78
2021/11/13 09:00:14;;;;;;;143.07;44.53;;;8.40;99.90;;;;;;6188128;23;20879;-78
2021/11/13 09:02:43;;;;;;;139.17;40.50;;;8.50;99.90;;;;;;6188874;23;20441;-78
2021/11/13 09:05:11;;;;;;;190.43;46.07;;;8.50;99.90;;;;;;6187976;23;20433;-78
2021/11/13 09:07:40;;;;;;;110.30;43.70;;;8.50;99.90;;;;;;6188487;23;20901;-79
2021/11/13 09:10:11;;;;;;;154.60;34.30;;;8.50;99.90;;;;;;6187637;23;20550;-79
2021/11/13 09:12:40;;;;;;;150.97;38.70;;;8.50;99.90;;;;;;6188334;23;20450;-78
2021/11/13 09:15:11;;;;;;;233.43;56.03;;;8.50;99.90;;;;;;6187890;23;20499;-78
2021/11/13 09:17:40;;;;;;;209.23;50.47;;;8.60;99.90;;;;;;6188034;23;20414;-79
2021/11/13 09:20:12;;;;;;;126.37;41.33;;;8.50;99.90;;;;;;6187771;23;20562;-78
2021/11/13 09:22:40;;;;;;;203.80;43.07;;;8.60;99.90;;;;;;6187741;23;20810;-79
2021/11/13 09:25:11;;;;;;;122.10;42.60;;;8.60;99.90;;;;;;6187990;23;20431;-78
2021/11/13 09:27:40;;;;;;;173.10;48.23;;;8.60;99.90;;;;;;6188108;23;20415;-79
2021/11/13 09:30:15;;;;;;;174.30;46.63;;;8.60;99.90;;;;;;6188654;23;20437;-78
2021/11/13 09:32:44;;;;;;;164.63;49.80;;;8.70;99.90;;;;;;6198827;23;20414;-78
2021/11/13 09:35:12;;;;;;;109.80;40.43;;;8.70;99.90;;;;;;6186538;23;20453;-78
2021/11/13 09:37:41;;;;;;;119.10;41.43;;;8.70;99.90;;;;;;6188294;23;20408;-78
2021/11/13 09:40:11;;;;;;;203.77;53.53;;;8.70;99.90;;;;;;6187147;23;20423;-78
2021/11/13 09:42:40;;;;;;;165.70;51.47;;;8.70;99.90;;;;;;6186959;23;20946;-78
2021/11/13 09:45:08;;;;;;;119.50;41.23;;;8.70;99.90;;;;;;6187668;23;20451;-78
2021/11/13 09:47:37;;;;;;;140.17;43.80;;;8.80;99.90;;;;;;6187204;23;20418;-78
2021/11/13 09:50:08;;;;;;;221.87;53.83;;;8.80;99.90;;;;;;6189011;23;20418;-78
2021/11/13 09:52:37;;;;;;;129.83;41.67;;;8.90;99.90;;;;;;6187390;23;20432;-78
2021/11/13 09:55:07;;;;;;;207.37;54.93;;;8.90;99.90;;;;;;6186875;23;20965;-79
2021/11/13 09:57:37;;;;;;;215.03;47.77;;;8.90;99.90;;;;;;6188144;23;20391;-78
2021/11/13 10:00:09;;;;;;;179.87;46.13;;;8.90;99.90;;;;;;6188500;23;20794;-78
2021/11/13 10:02:38;;;;;;;250.60;54.47;;;8.90;99.90;;;;;;6189303;23;20945;-79
2021/11/13 10:05:07;;;;;;;199.63;56.73;;;9.00;99.90;;;;;;6198476;23;20399;-78
2021/11/13 10:07:36;;;;;;;164.07;41.23;;;9.00;99.90;;;;;;6186852;23;20426;-79
2021/11/13 10:10:05;;;;;;;193.90;51.37;;;9.00;99.90;;;;;;6198651;23;20875;-78
2021/11/13 10:12:37;;;;;;;183.33;54.37;;;9.00;99.90;;;;;;6188841;23;20443;-79
2021/11/13 10:15:30;;;;;;;134.60;44.57;;;9.00;99.90;;;;;;6189521;23;20740;-78
2021/11/13 10:18:12;;;;;;;164.57;49.03;;;9.00;99.90;;;;;;6186618;23;20458;-78
2021/11/13 10:20:43;;;;;;;201.53;50.97;;;9.00;99.90;;;;;;6187149;23;20418;-79
2021/11/13 10:23:32;;;;;;;125.13;40.27;;;9.00;99.90;;;;;;6186963;23;20426;-78
2021/11/13 10:26:04;;;;;;;136.87;52.47;;;9.00;99.90;;;;;;6198510;23;20380;-78
2021/11/13 10:28:42;;;;;;;197.13;43.23;;;9.10;99.90;;;;;;6186821;23;20447;-78
2021/11/13 10:31:14;;;;;;;232.23;54.47;;;9.10;99.90;;;;;;6187435;23;20447;-79
2021/11/13 10:33:47;;;;;;;163.57;48.17;;;9.10;99.90;;;;;;6189017;23;20387;-78
2021/11/13 10:36:21;;;;;;;143.70;45.73;;;9.10;99.90;;;;;;6187582;23;20425;-78
2021/11/13 10:38:57;;;;;;;275.33;63.37;;;9.10;99.90;;;;;;6187846;23;20438;-78
2021/11/13 10:41:26;;;;;;;168.63;48.47;;;9.20;99.90;;;;;;6197333;23;20899;-78
2021/11/13 10:43:56;;;;;;;124.50;42.60;;;9.20;99.90;;;;;;6187487;23;20423;-78
2021/11/13 10:46:26;;;;;;;125.87;43.80;;;9.20;99.90;;;;;;6186417;23;20424;-78
2021/11/13 10:48:57;;;;;;;138.63;44.97;;;9.20;99.90;;;;;;6188275;23;20396;-78
2021/11/13 10:51:28;;;;;;;173.07;48.47;;;9.20;99.90;;;;;;6186723;23;20451;-78
2021/11/13 10:53:58;;;;;;;169.43;48.07;;;9.20;99.90;;;;;;6187616;23;20422;-78
2021/11/13 10:56:30;;;;;;;244.20;51.63;;;9.20;99.90;;;;;;6187499;23;20419;-78
2021/11/13 10:59:03;;;;;;;233.37;63.77;;;9.30;99.90;;;;;;6185824;23;20457;-77
2021/11/13 11:01:36;;;;;;;204.53;47.67;;;9.30;99.90;;;;;;6185976;23;20435;-78
2021/11/13 11:04:17;;;;;;;216.70;59.23;;;9.30;99.90;;;;;;6185306;23;20422;-78
2021/11/13 11:06:50;;;;;;;269.73;55.17;;;9.30;99.90;;;;;;6185331;23;20477;-78
2021/11/13 11:09:24;;;;;;;316.67;63.83;;;9.30;99.90;;;;;;6185185;23;20412;-78
2021/11/13 11:11:56;;;;;;;231.20;50.20;;;9.30;99.90;;;;;;6186406;23;20450;-78
2021/11/13 11:14:31;;;;;;;203.00;60.77;;;9.40;99.90;;;;;;6185181;23;20905;-77
2021/11/13 11:17:02;;;;;;;282.90;62.27;;;9.40;99.90;;;;;;6185322;23;20928;-77
2021/11/13 11:19:32;;;;;;;215.23;54.80;;;9.40;99.90;;;;;;6196573;23;20382;-78
2021/11/13 11:22:07;;;;;;;259.40;60.27;;;9.40;99.90;;;;;;6184514;23;20439;-77
2021/11/13 11:24:43;;;;;;;162.90;51.53;;;9.50;99.90;;;;;;6186559;23;20438;-78
2021/11/13 11:27:16;;;;;;;185.43;50.57;;;9.50;99.90;;;;;;6187397;23;20404;-78
2021/11/13 11:29:59;;;;;;;212.33;52.47;;;9.50;99.90;;;;;;6185319;23;20467;-78
2021/11/13 11:32:32;;;;;;;190.87;63.77;;;9.50;99.90;;;;;;6196741;23;20443;-78
2021/11/13 11:35:03;;;;;;;197.77;54.20;;;9.60;99.90;;;;;;6185624;23;20407;-78
2021/11/13 11:37:34;;;;;;;208.00;56.47;;;9.60;99.90;;;;;;6189079;23;20450;-78
2021/11/13 11:40:10;;;;;;;279.77;58.60;;;9.60;99.90;;;;;;6199060;23;20380;-79
2021/11/13 11:42:41;;;;;;;248.43;61.93;;;9.60;99.90;;;;;;6188373;23;20439;-78
2021/11/13 11:45:13;;;;;;;221.07;56.17;;;9.60;99.90;;;;;;6187932;23;20491;-79
2021/11/13 11:47:43;;;;;;;190.03;53.03;;;9.60;99.90;;;;;;6198954;23;20847;-79
2021/11/13 11:50:15;;;;;;;190.43;65.17;;;9.70;99.90;;;;;;6188125;23;20905;-79
2021/11/13 11:52:44;;;;;;;331.43;70.07;;;9.70;99.90;;;;;;6188379;23;20439;-77
2021/11/13 11:55:14;;;;;;;218.07;62.57;;;9.80;99.90;;;;;;6188140;23;20435;-79
2021/11/13 11:57:45;;;;;;;221.53;54.93;;;9.80;99.90;;;;;;6188071;23;20411;-78
2021/11/13 12:00:19;;;;;;;204.17;51.57;;;9.80;99.90;;;;;;6188369;23;20416;-79
2021/11/13 12:02:50;;;;;;;155.03;52.10;;;9.80;99.90;;;;;;6199338;23;20483;-79
2021/11/13 12:05:22;;;;;;;235.27;63.60;;;9.80;99.90;;;;;;6199763;23;20441;-78
2021/11/13 12:07:51;;;;;;;195.07;44.10;;;9.90;99.90;;;;;;6188878;23;20735;-78
2021/11/13 12:10:26;;;;;;;234.90;56.83;;;9.90;99.90;;;;;;6200521;23;20388;-78
2021/11/13 12:13:03;;;;;;;253.40;62.10;;;9.90;99.90;;;;;;6188441;23;20446;-79
2021/11/13 12:15:36;;;;;;;225.03;63.83;;;9.90;99.90;;;;;;6188780;23;20411;-78
2021/11/13 12:18:19;;;;;;;336.60;86.03;;;9.90;99.90;;;;;;6189543;23;20474;-79
2021/11/13 12:20:51;;;;;;;129.13;39.67;;;9.90;99.90;;;;;;6189639;23;20404;-78
2021/11/13 12:23:28;;;;;;;157.97;56.27;;;10.00;99.90;;;;;;6188918;23;20419;-79
2021/11/13 12:26:06;;;;;;;212.70;58.37;;;9.90;99.90;;;;;;6188534;23;20415;-79
2021/11/13 12:28:37;;;;;;;278.97;64.30;;;10.00;99.90;;;;;;6188318;23;20465;-78
2021/11/13 12:31:23;;;;;;;187.90;55.00;;;10.00;99.90;;;;;;6188655;23;20435;-79
2021/11/13 12:34:14;;;;;;;269.40;65.33;;;10.00;99.90;;;;;;6200792;23;20376;-78
2021/11/13 12:36:51;;;;;;;301.97;56.53;;;10.00;99.90;;;;;;6188767;23;20411;-79
2021/11/13 12:39:22;;;;;;;240.23;52.57;;;10.00;99.90;;;;;;6189543;23;20461;-79